Time;durP1;ratioP1;P1;durP2;ratioP2;P2;SDS_P1;SDS_P2;PMS_P1;PMS_P2;Temp;Humidity;BMP_temperature;BMP_pressure;BME280_temperature;BME280_humidity;BME280_pressure;Samples;Min_cycle;Max_cycle;Signal;HPM_P1;HPM_P2
2023/07/03 00:01:44;;;;;;;14.85;8.38;;;;;;;;;;5017159;28;20209;-53
2023/07/03 00:04:10;;;;;;;16.02;8.55;;;;;;;;;;5022896;28;20207;-52
2023/07/03 00:06:37;;;;;;;14.40;8.80;;;;;;;;;;5018447;28;20490;-52
2023/07/03 00:09:03;;;;;;;13.15;8.27;;;;;;;;;;5016938;28;20191;-52
2023/07/03 00:11:29;;;;;;;14.73;8.52;;;;;;;;;;5017196;28;20200;-53
2023/07/03 00:13:54;;;;;;;15.38;8.13;;;;;;;;;;5017151;28;20189;-52
2023/07/03 00:16:20;;;;;;;12.55;7.82;;;;;;;;;;5017187;28;20187;-52
2023/07/03 00:18:48;;;;;;;15.63;8.45;;;;;;;;;;5018060;28;20196;-52
2023/07/03 00:21:14;;;;;;;15.45;9.07;;;;;;;;;;5016867;28;20247;-52
2023/07/03 00:23:40;;;;;;;14.63;8.32;;;;;;;;;;5018102;28;20216;-52
2023/07/03 00:26:05;;;;;;;14.15;8.60;;;;;;;;;;5016451;28;20226;-52
2023/07/03 00:28:31;;;;;;;12.02;7.40;;;;;;;;;;5016101;28;20235;-52
2023/07/03 00:30:57;;;;;;;15.07;8.52;;;;;;;;;;5016250;28;20505;-52
2023/07/03 00:33:23;;;;;;;13.57;8.18;;;;;;;;;;5017119;28;20183;-52
2023/07/03 00:35:49;;;;;;;13.65;8.32;;;;;;;;;;5018871;28;20190;-52
2023/07/03 00:38:15;;;;;;;12.88;8.43;;;;;;;;;;5015843;28;20172;-52
2023/07/03 00:40:41;;;;;;;13.57;8.13;;;;;;;;;;5016703;28;20195;-52
2023/07/03 00:43:07;;;;;;;17.23;9.10;;;;;;;;;;5022617;28;20180;-52
2023/07/03 00:45:34;;;;;;;17.17;8.75;;;;;;;;;;5022378;28;20183;-52
2023/07/03 00:48:00;;;;;;;14.98;8.15;;;;;;;;;;5015854;28;20173;-52
2023/07/03 00:50:26;;;;;;;14.48;8.32;;;;;;;;;;5016213;28;20235;-52
2023/07/03 00:52:53;;;;;;;15.68;8.68;;;;;;;;;;5016216;28;20252;-52
2023/07/03 00:55:20;;;;;;;12.43;8.30;;;;;;;;;;5016137;28;20583;-52
2023/07/03 00:57:46;;;;;;;11.48;7.75;;;;;;;;;;5015757;28;20184;-52
2023/07/03 01:00:13;;;;;;;14.48;9.23;;;;;;;;;;5015972;28;20329;-52
2023/07/03 01:02:42;;;;;;;13.85;8.18;;;;;;;;;;5016225;28;20197;-52
2023/07/03 01:05:25;;;;;;;14.05;8.35;;;;;;;;;;5016237;28;20188;-52
2023/07/03 01:07:51;;;;;;;14.45;8.90;;;;;;;;;;5016942;28;20201;-53
2023/07/03 01:10:20;;;;;;;14.60;8.68;;;;;;;;;;5020074;28;20194;-52
2023/07/03 01:12:48;;;;;;;15.57;9.40;;;;;;;;;;5016243;28;20176;-52
2023/07/03 01:15:17;;;;;;;13.10;9.02;;;;;;;;;;5015875;28;20239;-52
2023/07/03 01:17:44;;;;;;;15.27;8.90;;;;;;;;;;5018110;28;20176;-52
2023/07/03 01:20:12;;;;;;;14.88;8.82;;;;;;;;;;5015714;28;20192;-52
2023/07/03 01:22:49;;;;;;;14.48;8.65;;;;;;;;;;5015748;28;20208;-52
2023/07/03 01:25:18;;;;;;;17.55;9.45;;;;;;;;;;5015608;28;20599;-52
2023/07/03 01:27:45;;;;;;;15.13;9.20;;;;;;;;;;5017345;28;20203;-52
2023/07/03 01:30:13;;;;;;;15.10;8.65;;;;;;;;;;5014549;28;20173;-52
2023/07/03 01:32:39;;;;;;;17.58;9.23;;;;;;;;;;5015524;28;20192;-52
2023/07/03 01:35:08;;;;;;;17.23;9.30;;;;;;;;;;5015634;28;20465;-52
2023/07/03 01:37:35;;;;;;;14.43;9.02;;;;;;;;;;5014830;28;20204;-53
2023/07/03 01:40:01;;;;;;;17.08;9.30;;;;;;;;;;5014723;28;20216;-52
2023/07/03 01:42:29;;;;;;;14.38;8.80;;;;;;;;;;5015614;28;20207;-52
2023/07/03 01:44:55;;;;;;;15.93;8.93;;;;;;;;;;5015427;28;20225;-52
2023/07/03 01:47:21;;;;;;;16.35;8.98;;;;;;;;;;5027161;28;20226;-52
2023/07/03 01:49:48;;;;;;;17.67;9.13;;;;;;;;;;5016128;28;20484;-53
2023/07/03 01:52:40;;;;;;;16.90;9.15;;;;;;;;;;5016393;28;20196;-53
2023/07/03 01:55:06;;;;;;;16.13;9.32;;;;;;;;;;5014392;28;20196;-53
2023/07/03 01:57:42;;;;;;;12.40;8.27;;;;;;;;;;5014150;28;20196;-53
2023/07/03 02:00:10;;;;;;;17.52;9.43;;;;;;;;;;5015085;28;20172;-53
2023/07/03 02:02:37;;;;;;;19.05;9.90;;;;;;;;;;5014867;28;20481;-53
2023/07/03 02:05:05;;;;;;;18.50;9.38;;;;;;;;;;5015125;28;20176;-53
2023/07/03 02:07:32;;;;;;;17.20;9.70;;;;;;;;;;5014247;28;20219;-53
2023/07/03 02:09:59;;;;;;;15.35;8.98;;;;;;;;;;5021862;28;20180;-53
2023/07/03 02:12:25;;;;;;;17.10;9.25;;;;;;;;;;5015379;28;20184;-52
2023/07/03 02:14:50;;;;;;;17.77;10.00;;;;;;;;;;5014985;28;20185;-52
2023/07/03 02:17:16;;;;;;;15.75;8.52;;;;;;;;;;5018360;28;20192;-52
2023/07/03 02:19:42;;;;;;;16.65;9.13;;;;;;;;;;5014693;28;20227;-52
2023/07/03 02:22:08;;;;;;;19.00;9.65;;;;;;;;;;5014833;28;20591;-52
2023/07/03 02:24:34;;;;;;;20.42;10.02;;;;;;;;;;5017130;28;20271;-52
2023/07/03 02:27:00;;;;;;;18.55;9.80;;;;;;;;;;5016776;28;20264;-52
2023/07/03 02:29:26;;;;;;;18.08;9.63;;;;;;;;;;5016726;28;20564;-52
2023/07/03 02:31:52;;;;;;;17.45;9.65;;;;;;;;;;5013967;28;20251;-52
2023/07/03 02:34:20;;;;;;;17.25;9.98;;;;;;;;;;5014912;28;20227;-53
2023/07/03 02:36:47;;;;;;;15.07;9.30;;;;;;;;;;5014052;28;20259;-53
2023/07/03 02:39:12;;;;;;;16.75;9.27;;;;;;;;;;5014565;28;20555;-52
2023/07/03 02:41:38;;;;;;;17.13;9.68;;;;;;;;;;5014125;28;20212;-52
2023/07/03 02:44:04;;;;;;;19.55;9.88;;;;;;;;;;5014703;28;20293;-52
2023/07/03 02:46:30;;;;;;;21.80;10.23;;;;;;;;;;5008804;28;20180;-53
2023/07/03 02:48:56;;;;;;;18.77;9.93;;;;;;;;;;5014534;28;20576;-53
2023/07/03 02:51:22;;;;;;;18.50;9.48;;;;;;;;;;5014353;28;20270;-53
2023/07/03 02:53:48;;;;;;;17.65;9.80;;;;;;;;;;5014107;28;20188;-52
2023/07/03 02:56:14;;;;;;;16.77;9.60;;;;;;;;;;5014087;28;20180;-52
2023/07/03 02:58:40;;;;;;;15.95;9.52;;;;;;;;;;5014159;28;20184;-52
2023/07/03 03:01:06;;;;;;;17.15;9.77;;;;;;;;;;5019087;28;20542;-52
2023/07/03 03:03:32;;;;;;;21.45;10.00;;;;;;;;;;5016339;28;20184;-52
2023/07/03 03:05:58;;;;;;;17.05;9.50;;;;;;;;;;5020581;28;20306;-52
2023/07/03 03:08:24;;;;;;;14.88;9.68;;;;;;;;;;5018238;28;20677;-52
2023/07/03 03:10:51;;;;;;;18.00;9.82;;;;;;;;;;5014078;28;20187;-52
2023/07/03 03:13:17;;;;;;;16.55;9.55;;;;;;;;;;5014222;28;20195;-52
2023/07/03 03:15:43;;;;;;;18.48;10.38;;;;;;;;;;5014439;28;20184;-52
2023/07/03 03:18:09;;;;;;;16.17;9.90;;;;;;;;;;5017506;28;20199;-52
2023/07/03 03:20:35;;;;;;;18.38;10.05;;;;;;;;;;5017440;28;20547;-52
2023/07/03 03:23:01;;;;;;;16.75;9.32;;;;;;;;;;5014157;28;20219;-52
2023/07/03 03:25:27;;;;;;;20.02;10.32;;;;;;;;;;5014041;28;20185;-52
2023/07/03 03:27:53;;;;;;;22.05;10.07;;;;;;;;;;5017174;28;20555;-52
2023/07/03 03:30:20;;;;;;;17.60;9.82;;;;;;;;;;5020309;28;20180;-53
2023/07/03 03:32:46;;;;;;;16.40;9.50;;;;;;;;;;5018293;28;20464;-53
2023/07/03 03:35:12;;;;;;;18.58;9.80;;;;;;;;;;5017663;28;20263;-53
2023/07/03 03:37:38;;;;;;;20.80;10.02;;;;;;;;;;5017484;28;20203;-53
2023/07/03 03:40:07;;;;;;;17.48;9.93;;;;;;;;;;5017976;28;20189;-52
2023/07/03 03:42:33;;;;;;;17.98;9.57;;;;;;;;;;5018214;28;20669;-53
2023/07/03 03:44:59;;;;;;;20.15;10.10;;;;;;;;;;5017695;28;20299;-52
2023/07/03 03:47:25;;;;;;;16.85;10.02;;;;;;;;;;5017064;28;20450;-55
2023/07/03 03:49:53;;;;;;;17.20;10.13;;;;;;;;;;5018095;28;20183;-53
2023/07/03 03:52:19;;;;;;;18.20;10.00;;;;;;;;;;5017242;28;20458;-56
2023/07/03 03:54:46;;;;;;;22.10;9.95;;;;;;;;;;5018913;28;20184;-55
2023/07/03 03:57:13;;;;;;;19.05;9.80;;;;;;;;;;5016371;28;20212;-53
2023/07/03 03:59:38;;;;;;;16.83;9.25;;;;;;;;;;5017068;28;20184;-55
2023/07/03 04:02:04;;;;;;;21.55;9.45;;;;;;;;;;5017395;28;20204;-55
2023/07/03 04:04:30;;;;;;;18.35;9.73;;;;;;;;;;5016914;28;20185;-54
2023/07/03 04:06:56;;;;;;;16.13;9.25;;;;;;;;;;5023455;28;20212;-54
2023/07/03 04:09:22;;;;;;;19.55;10.38;;;;;;;;;;5016742;28;20182;-55
2023/07/03 04:11:48;;;;;;;19.23;10.07;;;;;;;;;;4999745;28;20203;-55
2023/07/03 04:14:15;;;;;;;16.73;9.02;;;;;;;;;;5017131;28;20184;-55
2023/07/03 04:16:41;;;;;;;18.02;9.93;;;;;;;;;;5016179;28;20190;-53
2023/07/03 04:19:07;;;;;;;15.98;8.52;;;;;;;;;;5016907;28;20199;-53
2023/07/03 04:21:33;;;;;;;18.30;8.57;;;;;;;;;;5016973;28;20208;-53
2023/07/03 04:23:59;;;;;;;17.17;9.35;;;;;;;;;;5003187;28;20182;-53
2023/07/03 04:26:25;;;;;;;18.17;9.35;;;;;;;;;;5018720;28;20192;-53
2023/07/03 04:28:52;;;;;;;15.60;8.85;;;;;;;;;;5016708;28;20205;-55
2023/07/03 04:31:18;;;;;;;22.23;8.95;;;;;;;;;;5015789;28;20196;-54
2023/07/03 04:33:45;;;;;;;15.43;8.20;;;;;;;;;;5016471;28;20188;-52
2023/07/03 04:36:12;;;;;;;17.90;9.07;;;;;;;;;;5016648;28;20177;-54
2023/07/03 04:38:39;;;;;;;19.02;9.27;;;;;;;;;;5016422;28;20215;-52
2023/07/03 04:41:05;;;;;;;17.10;9.15;;;;;;;;;;5015652;28;20187;-52
2023/07/03 04:43:31;;;;;;;17.80;9.23;;;;;;;;;;5020275;28;20188;-52
2023/07/03 04:46:03;;;;;;;19.00;9.40;;;;;;;;;;5016158;28;20184;-52
2023/07/03 04:48:29;;;;;;;18.00;9.02;;;;;;;;;;5015932;28;20191;-52
2023/07/03 04:50:55;;;;;;;20.15;9.27;;;;;;;;;;5008204;28;20184;-52
2023/07/03 04:53:21;;;;;;;15.85;9.02;;;;;;;;;;5016240;28;20192;-52
2023/07/03 04:55:47;;;;;;;16.67;9.15;;;;;;;;;;5019804;28;20195;-54
2023/07/03 04:58:14;;;;;;;17.75;8.77;;;;;;;;;;5015825;28;20187;-52
2023/07/03 05:00:40;;;;;;;15.73;9.40;;;;;;;;;;5016083;28;20439;-51
2023/07/03 05:03:07;;;;;;;17.80;9.45;;;;;;;;;;5016385;28;20208;-52
2023/07/03 05:05:33;;;;;;;16.45;8.55;;;;;;;;;;5015644;28;20203;-52
2023/07/03 05:07:59;;;;;;;17.63;9.13;;;;;;;;;;5015876;28;20275;-52
2023/07/03 05:10:25;;;;;;;18.35;9.00;;;;;;;;;;5015980;28;20204;-53
2023/07/03 05:12:52;;;;;;;16.23;8.40;;;;;;;;;;5015848;28;20244;-53
2023/07/03 05:15:19;;;;;;;20.17;9.13;;;;;;;;;;5015323;28;20192;-52
2023/07/03 05:17:48;;;;;;;16.95;8.93;;;;;;;;;;5015353;28;20184;-54
2023/07/03 05:20:15;;;;;;;19.67;8.95;;;;;;;;;;5017504;28;20187;-52
2023/07/03 05:22:42;;;;;;;22.23;9.50;;;;;;;;;;5021742;28;20266;-53
2023/07/03 05:25:09;;;;;;;19.27;8.55;;;;;;;;;;5015439;28;20188;-53
2023/07/03 05:27:35;;;;;;;14.30;8.32;;;;;;;;;;5015081;28;20185;-52
2023/07/03 05:30:02;;;;;;;15.95;8.73;;;;;;;;;;5015664;28;20544;-53
2023/07/03 05:32:28;;;;;;;18.63;8.60;;;;;;;;;;5015945;28;20431;-52
2023/07/03 05:34:54;;;;;;;17.90;8.32;;;;;;;;;;5016480;28;20591;-55
2023/07/03 05:37:20;;;;;;;15.48;8.45;;;;;;;;;;5014835;28;20180;-54
2023/07/03 05:39:48;;;;;;;17.48;8.85;;;;;;;;;;5000749;28;20210;-54
2023/07/03 05:42:14;;;;;;;16.30;7.40;;;;;;;;;;5020679;28;20477;-52
2023/07/03 05:44:40;;;;;;;15.18;7.80;;;;;;;;;;5015663;28;20184;-54
2023/07/03 05:47:06;;;;;;;19.55;8.45;;;;;;;;;;5017546;28;20274;-52
2023/07/03 05:49:32;;;;;;;16.55;9.05;;;;;;;;;;5018890;28;20215;-55
2023/07/03 05:51:58;;;;;;;18.48;8.82;;;;;;;;;;5015167;28;20216;-55
2023/07/03 05:54:24;;;;;;;16.98;9.40;;;;;;;;;;5021550;28;20589;-55
2023/07/03 05:56:57;;;;;;;19.13;9.15;;;;;;;;;;5013746;28;20184;-56
2023/07/03 05:59:23;;;;;;;18.95;8.45;;;;;;;;;;5014985;28;20172;-55
2023/07/03 06:01:49;;;;;;;18.13;8.13;;;;;;;;;;5014920;28;20185;-54
2023/07/03 06:04:15;;;;;;;19.85;9.15;;;;;;;;;;5020007;28;20187;-54
2023/07/03 06:06:41;;;;;;;21.42;8.40;;;;;;;;;;5014391;28;20490;-55
2023/07/03 06:09:07;;;;;;;16.00;8.60;;;;;;;;;;5014785;28;20296;-53
2023/07/03 06:11:33;;;;;;;21.20;8.93;;;;;;;;;;5014908;28;20191;-53
2023/07/03 06:13:59;;;;;;;16.42;8.10;;;;;;;;;;5015101;28;20235;-53
2023/07/03 06:16:27;;;;;;;18.95;8.55;;;;;;;;;;5015697;28;20181;-53
2023/07/03 06:18:53;;;;;;;15.65;8.18;;;;;;;;;;5014473;28;20226;-53
2023/07/03 06:21:19;;;;;;;15.93;8.43;;;;;;;;;;5020551;28;20216;-54
2023/07/03 06:23:45;;;;;;;17.30;7.90;;;;;;;;;;5014668;28;20180;-54
2023/07/03 06:26:11;;;;;;;16.80;8.45;;;;;;;;;;4999813;28;20246;-54
2023/07/03 06:28:37;;;;;;;16.98;8.20;;;;;;;;;;5014935;28;20180;-54
2023/07/03 06:31:03;;;;;;;14.32;7.75;;;;;;;;;;4997327;28;20473;-54
2023/07/03 06:33:29;;;;;;;14.82;7.93;;;;;;;;;;5014701;28;20189;-54
2023/07/03 06:35:55;;;;;;;14.30;7.97;;;;;;;;;;5014495;28;20188;-54
2023/07/03 06:38:21;;;;;;;16.17;8.00;;;;;;;;;;5014378;28;20247;-54
2023/07/03 06:40:57;;;;;;;17.33;8.55;;;;;;;;;;5014436;28;20192;-54
2023/07/03 06:43:23;;;;;;;15.80;7.93;;;;;;;;;;5014583;28;20502;-53
2023/07/03 06:45:49;;;;;;;17.10;8.75;;;;;;;;;;5014283;28;20222;-54
2023/07/03 06:48:15;;;;;;;17.65;7.47;;;;;;;;;;5013512;28;20177;-52
2023/07/03 06:50:41;;;;;;;16.27;8.35;;;;;;;;;;5014440;28;20555;-52
2023/07/03 06:53:07;;;;;;;14.68;7.82;;;;;;;;;;5019311;28;20219;-53
2023/07/03 06:55:32;;;;;;;15.80;7.65;;;;;;;;;;5014440;28;20462;-52
2023/07/03 06:58:00;;;;;;;14.57;8.57;;;;;;;;;;5013136;28;20392;-54
2023/07/03 07:00:26;;;;;;;17.80;7.40;;;;;;;;;;5014298;28;20183;-54
2023/07/03 07:02:52;;;;;;;15.93;7.07;;;;;;;;;;5014270;28;20269;-54
2023/07/03 07:05:19;;;;;;;14.02;7.28;;;;;;;;;;5001137;28;20267;-54
2023/07/03 07:07:45;;;;;;;16.38;6.97;;;;;;;;;;5018075;28;20188;-52
2023/07/03 07:10:11;;;;;;;16.48;7.07;;;;;;;;;;5017877;28;20437;-52
2023/07/03 07:12:37;;;;;;;15.68;7.00;;;;;;;;;;5017353;28;20231;-57
2023/07/03 07:15:04;;;;;;;17.48;7.32;;;;;;;;;;5023207;28;20191;-53
2023/07/03 07:17:30;;;;;;;12.45;6.43;;;;;;;;;;5018018;28;20452;-54
2023/07/03 07:19:56;;;;;;;12.13;6.28;;;;;;;;;;5017427;28;20189;-53
2023/07/03 07:22:22;;;;;;;11.68;5.88;;;;;;;;;;5017423;28;20239;-53
2023/07/03 07:24:48;;;;;;;12.50;6.45;;;;;;;;;;5017989;28;20192;-53
2023/07/03 07:27:14;;;;;;;12.63;6.57;;;;;;;;;;5023842;28;20195;-53
2023/07/03 07:29:40;;;;;;;14.65;5.93;;;;;;;;;;5025776;28;20223;-53
2023/07/03 07:32:06;;;;;;;14.90;6.28;;;;;;;;;;5018022;28;20204;-54
2023/07/03 07:34:32;;;;;;;10.93;6.03;;;;;;;;;;5018603;28;20204;-53
2023/07/03 07:36:58;;;;;;;13.93;5.95;;;;;;;;;;5017238;28;20250;-53
2023/07/03 07:39:26;;;;;;;12.55;6.10;;;;;;;;;;5019755;28;20556;-53
2023/07/03 07:41:52;;;;;;;13.98;5.55;;;;;;;;;;5017243;28;20204;-53
2023/07/03 07:44:18;;;;;;;11.52;5.10;;;;;;;;;;5017987;28;20552;-54
2023/07/03 07:46:44;;;;;;;15.63;5.85;;;;;;;;;;5016972;28;20183;-54
2023/07/03 07:49:10;;;;;;;10.98;5.00;;;;;;;;;;5017626;28;20184;-54
2023/07/03 07:51:36;;;;;;;12.05;5.20;;;;;;;;;;5020884;28;20437;-55
2023/07/03 07:54:03;;;;;;;12.95;5.53;;;;;;;;;;5020319;28;20223;-54
2023/07/03 07:56:29;;;;;;;13.90;5.32;;;;;;;;;;5016758;28;20180;-54
2023/07/03 07:58:55;;;;;;;14.50;5.57;;;;;;;;;;5017475;28;20187;-54
2023/07/03 08:01:21;;;;;;;11.40;5.88;;;;;;;;;;5017198;28;20242;-54
2023/07/03 08:03:47;;;;;;;13.35;5.53;;;;;;;;;;5023072;28;20207;-54
2023/07/03 08:06:13;;;;;;;12.25;5.22;;;;;;;;;;5020314;28;20258;-54
2023/07/03 08:08:39;;;;;;;12.20;5.63;;;;;;;;;;5016901;28;20222;-54
2023/07/03 08:11:06;;;;;;;19.90;5.50;;;;;;;;;;5016591;28;20188;-53
2023/07/03 08:13:33;;;;;;;13.52;4.80;;;;;;;;;;5017263;28;20191;-53
2023/07/03 08:15:59;;;;;;;18.67;6.88;;;;;;;;;;5019407;28;20184;-53
2023/07/03 08:18:25;;;;;;;11.88;5.38;;;;;;;;;;5026962;28;20212;-54
2023/07/03 08:20:52;;;;;;;12.50;5.65;;;;;;;;;;5016664;28;20207;-54
2023/07/03 08:23:18;;;;;;;15.77;5.07;;;;;;;;;;5016386;28;20209;-54
2023/07/03 08:25:44;;;;;;;14.70;5.15;;;;;;;;;;5016624;28;20582;-55
2023/07/03 08:28:10;;;;;;;13.57;4.95;;;;;;;;;;5020399;28;20183;-54
2023/07/03 08:30:36;;;;;;;13.30;5.20;;;;;;;;;;5019339;28;20181;-54
2023/07/03 08:33:02;;;;;;;11.82;5.45;;;;;;;;;;5018392;28;20199;-54
2023/07/03 08:35:28;;;;;;;10.55;5.53;;;;;;;;;;5016868;28;20180;-54
2023/07/03 08:37:54;;;;;;;11.15;5.75;;;;;;;;;;5015425;28;20180;-54
2023/07/03 08:40:21;;;;;;;8.73;4.80;;;;;;;;;;5016704;28;20181;-54
2023/07/03 08:42:54;;;;;;;12.27;5.03;;;;;;;;;;5019280;28;20299;-54
2023/07/03 08:45:21;;;;;;;13.35;5.38;;;;;;;;;;5016628;28;20172;-53
2023/07/03 08:47:50;;;;;;;15.85;6.18;;;;;;;;;;5016096;28;20532;-52
2023/07/03 08:50:19;;;;;;;15.45;6.18;;;;;;;;;;4999495;28;20564;-53
2023/07/03 08:52:47;;;;;;;13.13;5.70;;;;;;;;;;5012828;28;20208;-54
2023/07/03 08:55:15;;;;;;;11.68;5.28;;;;;;;;;;5016179;28;20556;-54
2023/07/03 08:57:41;;;;;;;12.75;5.13;;;;;;;;;;5015941;28;20460;-52
2023/07/03 09:00:11;;;;;;;13.63;5.45;;;;;;;;;;5016407;28;20203;-54
2023/07/03 09:02:41;;;;;;;15.50;5.38;;;;;;;;;;5017078;28;20819;-53
2023/07/03 09:05:25;;;;;;;12.85;5.82;;;;;;;;;;5020707;28;20211;-53
2023/07/03 09:07:56;;;;;;;13.98;5.82;;;;;;;;;;5015743;28;20210;-53
2023/07/03 09:10:25;;;;;;;16.17;6.25;;;;;;;;;;5015860;28;20731;-53
2023/07/03 09:13:09;;;;;;;15.90;4.97;;;;;;;;;;5016173;28;20192;-53
2023/07/03 09:15:47;;;;;;;10.73;5.18;;;;;;;;;;5015983;28;20271;-54
2023/07/03 09:18:21;;;;;;;11.65;4.90;;;;;;;;;;5015701;28;20411;-54
2023/07/03 09:20:47;;;;;;;13.02;5.68;;;;;;;;;;5015274;28;20279;-54
2023/07/03 09:23:22;;;;;;;11.93;5.28;;;;;;;;;;4998411;28;20215;-54
2023/07/03 09:25:53;;;;;;;11.27;4.88;;;;;;;;;;5015383;28;20259;-54
2023/07/03 09:28:19;;;;;;;13.00;5.43;;;;;;;;;;5015622;28;20189;-54
2023/07/03 09:30:46;;;;;;;12.43;4.78;;;;;;;;;;5015565;28;20191;-54
2023/07/03 09:33:12;;;;;;;13.95;4.90;;;;;;;;;;5015882;28;20841;-53
2023/07/03 09:35:42;;;;;;;11.00;4.90;;;;;;;;;;5015604;28;20250;-53
2023/07/03 09:38:23;;;;;;;11.95;5.00;;;;;;;;;;5015164;28;20192;-53
2023/07/03 09:40:50;;;;;;;12.95;5.60;;;;;;;;;;5015469;28;20192;-55
2023/07/03 09:43:20;;;;;;;11.57;4.97;;;;;;;;;;5014649;28;20488;-53
2023/07/03 09:45:46;;;;;;;12.77;5.07;;;;;;;;;;5015264;28;20558;-54
2023/07/03 09:48:34;;;;;;;11.93;5.18;;;;;;;;;;5014849;28;20184;-54
2023/07/03 09:51:00;;;;;;;12.50;4.78;;;;;;;;;;5017160;28;20169;-54
2023/07/03 09:53:27;;;;;;;10.85;4.47;;;;;;;;;;5015288;28;20271;-55
2023/07/03 09:55:56;;;;;;;12.95;5.03;;;;;;;;;;5015321;28;20192;-54
2023/07/03 09:58:27;;;;;;;7.20;4.07;;;;;;;;;;5014821;28;20180;-55
2023/07/03 10:00:55;;;;;;;12.18;5.60;;;;;;;;;;5015137;28;20289;-55
2023/07/03 10:03:25;;;;;;;12.02;5.35;;;;;;;;;;5007401;28;20280;-53
2023/07/03 10:05:51;;;;;;;13.10;4.85;;;;;;;;;;5014908;28;20181;-53
2023/07/03 10:08:20;;;;;;;11.68;5.00;;;;;;;;;;5015128;28;20186;-55
2023/07/03 10:10:46;;;;;;;12.18;5.20;;;;;;;;;;5014922;28;20188;-55
2023/07/03 10:13:19;;;;;;;9.52;4.22;;;;;;;;;;5014691;28;20189;-55
2023/07/03 10:15:46;;;;;;;12.55;5.25;;;;;;;;;;5022573;28;20184;-53
2023/07/03 10:18:15;;;;;;;11.15;5.00;;;;;;;;;;5014307;28;20250;-53
2023/07/03 10:20:43;;;;;;;12.98;4.78;;;;;;;;;;5014710;28;20484;-54
2023/07/03 10:23:11;;;;;;;8.82;4.82;;;;;;;;;;5014634;28;20203;-54
2023/07/03 10:25:39;;;;;;;10.30;5.32;;;;;;;;;;5014715;28;20697;-55
2023/07/03 10:28:08;;;;;;;14.10;5.88;;;;;;;;;;5013921;28;20191;-55
2023/07/03 10:30:36;;;;;;;12.90;5.22;;;;;;;;;;5014544;28;20564;-55
2023/07/03 10:33:05;;;;;;;11.55;4.75;;;;;;;;;;5014537;28;20184;-55
2023/07/03 10:35:33;;;;;;;11.73;4.82;;;;;;;;;;5014781;28;20271;-55
2023/07/03 10:38:11;;;;;;;11.73;4.82;;;;;;;;;;5012458;28;20180;-55
2023/07/03 10:40:56;;;;;;;11.20;4.35;;;;;;;;;;5014927;28;20196;-54
2023/07/03 10:43:23;;;;;;;9.57;5.32;;;;;;;;;;5014629;28;20200;-55
2023/07/03 10:45:49;;;;;;;11.45;4.63;;;;;;;;;;5014608;28;20188;-55
2023/07/03 10:48:17;;;;;;;8.60;5.10;;;;;;;;;;5013771;28;20195;-55
2023/07/03 10:51:02;;;;;;;9.80;4.60;;;;;;;;;;5014698;28;20192;-54
2023/07/03 10:53:34;;;;;;;10.73;4.88;;;;;;;;;;5014510;28;20230;-54
2023/07/03 10:56:06;;;;;;;10.13;4.53;;;;;;;;;;5013623;28;20449;-54
2023/07/03 10:58:37;;;;;;;9.25;4.63;;;;;;;;;;5014075;28;20180;-54
2023/07/03 11:01:12;;;;;;;12.02;4.72;;;;;;;;;;4997128;28;20267;-54
2023/07/03 11:03:46;;;;;;;12.23;4.93;;;;;;;;;;5014428;28;20199;-54
2023/07/03 11:06:20;;;;;;;12.25;4.40;;;;;;;;;;5014179;28;20209;-55
2023/07/03 11:08:54;;;;;;;11.00;4.75;;;;;;;;;;5018257;28;20184;-53
2023/07/03 11:11:44;;;;;;;14.23;5.15;;;;;;;;;;5014857;28;20180;-53
2023/07/03 11:14:18;;;;;;;12.07;4.00;;;;;;;;;;5017640;28;20193;-56
2023/07/03 11:16:52;;;;;;;9.02;4.45;;;;;;;;;;5013859;28;20582;-54
2023/07/03 11:19:25;;;;;;;8.13;4.40;;;;;;;;;;5014133;28;20177;-54
2023/07/03 11:21:51;;;;;;;10.23;4.20;;;;;;;;;;5014120;28;20211;-54
2023/07/03 11:24:19;;;;;;;10.82;4.43;;;;;;;;;;5013951;28;20251;-54
2023/07/03 11:27:03;;;;;;;11.85;4.65;;;;;;;;;;5015997;28;20184;-53
2023/07/03 11:29:29;;;;;;;9.73;4.05;;;;;;;;;;5014033;28;20173;-54
2023/07/03 11:31:55;;;;;;;13.48;4.38;;;;;;;;;;5015306;28;20207;-54
2023/07/03 11:34:22;;;;;;;9.68;4.05;;;;;;;;;;5014404;28;20195;-53
2023/07/03 11:36:49;;;;;;;11.68;4.80;;;;;;;;;;5013259;28;20200;-53
2023/07/03 11:39:20;;;;;;;9.60;4.53;;;;;;;;;;4997128;28;20199;-53
2023/07/03 11:41:49;;;;;;;10.52;4.53;;;;;;;;;;5013413;28;20219;-53
2023/07/03 11:44:19;;;;;;;8.70;4.07;;;;;;;;;;5013962;28;20529;-55
2023/07/03 11:46:50;;;;;;;10.27;4.80;;;;;;;;;;5012887;28;20196;-55
2023/07/03 11:49:16;;;;;;;9.30;4.47;;;;;;;;;;5014274;28;20603;-55
2023/07/03 11:51:43;;;;;;;18.30;4.97;;;;;;;;;;5020395;28;20231;-56
2023/07/03 11:54:15;;;;;;;10.80;4.70;;;;;;;;;;5006202;28;20273;-55
2023/07/03 11:56:43;;;;;;;12.60;5.10;;;;;;;;;;5016798;28;20241;-55
2023/07/03 11:59:25;;;;;;;13.25;5.25;;;;;;;;;;5017452;28;20212;-55
2023/07/03 12:01:53;;;;;;;9.70;4.47;;;;;;;;;;5017336;28;20251;-55
2023/07/03 12:04:38;;;;;;;10.77;5.25;;;;;;;;;;5017447;28;20713;-55
2023/07/03 12:07:03;;;;;;;8.65;4.43;;;;;;;;;;5016680;28;20255;-54
2023/07/03 12:09:32;;;;;;;13.38;4.43;;;;;;;;;;5016319;28;20184;-54
2023/07/03 12:12:03;;;;;;;10.20;3.90;;;;;;;;;;5016857;28;20502;-56
2023/07/03 12:14:53;;;;;;;10.70;4.38;;;;;;;;;;5024226;28;20461;-56
2023/07/03 12:17:29;;;;;;;9.60;4.45;;;;;;;;;;5015298;28;20180;-54
2023/07/03 12:20:18;;;;;;;9.25;4.32;;;;;;;;;;5019898;28;20593;-54
2023/07/03 12:22:45;;;;;;;11.10;4.40;;;;;;;;;;5016602;28;20212;-55
2023/07/03 12:25:19;;;;;;;9.88;4.25;;;;;;;;;;5016595;28;20922;-54
2023/07/03 12:27:46;;;;;;;9.75;4.40;;;;;;;;;;5016512;28;20177;-53
2023/07/03 12:30:20;;;;;;;8.35;4.20;;;;;;;;;;5016917;28;20264;-55
2023/07/03 12:32:48;;;;;;;8.65;4.57;;;;;;;;;;5017618;28;20419;-51
2023/07/03 12:35:16;;;;;;;8.48;4.28;;;;;;;;;;5016721;28;20199;-59
2023/07/03 12:37:43;;;;;;;10.35;4.13;;;;;;;;;;5016250;28;20185;-60
2023/07/03 12:40:09;;;;;;;14.82;4.35;;;;;;;;;;5014867;28;20184;-60
2023/07/03 12:42:35;;;;;;;11.25;3.80;;;;;;;;;;5020577;28;20597;-60
2023/07/03 12:45:13;;;;;;;11.23;4.72;;;;;;;;;;5016960;28;20283;-60
2023/07/03 12:47:39;;;;;;;12.63;4.25;;;;;;;;;;5015426;28;20231;-59
2023/07/03 12:50:05;;;;;;;8.80;3.80;;;;;;;;;;5019876;28;20180;-60
2023/07/03 12:52:33;;;;;;;10.45;3.88;;;;;;;;;;5016347;28;20188;-60
2023/07/03 12:55:00;;;;;;;9.40;3.95;;;;;;;;;;5016235;28;20440;-60
2023/07/03 12:57:26;;;;;;;9.68;3.78;;;;;;;;;;5015414;28;20488;-60
2023/07/03 12:59:53;;;;;;;12.35;3.90;;;;;;;;;;5013085;28;20192;-60
2023/07/03 13:02:24;;;;;;;13.82;4.05;;;;;;;;;;4999129;28;20218;-59
2023/07/03 13:05:04;;;;;;;10.73;3.65;;;;;;;;;;5015987;28;20184;-59
2023/07/03 13:07:31;;;;;;;6.70;3.35;;;;;;;;;;5009238;28;20460;-59
2023/07/03 13:09:58;;;;;;;11.38;3.85;;;;;;;;;;5013929;28;20222;-59
2023/07/03 13:12:25;;;;;;;8.05;3.08;;;;;;;;;;5014113;28;20185;-60
2023/07/03 13:14:59;;;;;;;5.07;2.58;;;;;;;;;;5015780;28;20191;-60
2023/07/03 13:17:26;;;;;;;5.93;2.92;;;;;;;;;;5014599;28;20215;-60
2023/07/03 13:19:52;;;;;;;4.80;2.92;;;;;;;;;;5016088;28;20193;-59
2023/07/03 13:22:18;;;;;;;4.75;2.40;;;;;;;;;;5015796;28;20214;-60
2023/07/03 13:24:53;;;;;;;4.55;2.55;;;;;;;;;;5019183;28;20256;-60
2023/07/03 13:27:20;;;;;;;7.10;2.67;;;;;;;;;;5000140;28;20421;-61
2023/07/03 13:29:46;;;;;;;4.38;2.10;;;;;;;;;;5016176;28;20260;-59
2023/07/03 13:32:14;;;;;;;4.45;2.20;;;;;;;;;;5022811;28;20266;-59
2023/07/03 13:34:54;;;;;;;5.03;2.15;;;;;;;;;;5020315;28;20227;-60
2023/07/03 13:37:25;;;;;;;4.93;2.22;;;;;;;;;;5013432;28;20184;-59
2023/07/03 13:39:51;;;;;;;4.70;1.73;;;;;;;;;;5015785;28;20295;-59
2023/07/03 13:42:17;;;;;;;5.38;2.00;;;;;;;;;;5016410;28;20208;-60
2023/07/03 13:44:43;;;;;;;5.55;2.28;;;;;;;;;;5015512;28;20187;-59
2023/07/03 13:47:09;;;;;;;6.18;2.03;;;;;;;;;;5018374;28;20175;-60
2023/07/03 13:49:35;;;;;;;5.50;2.10;;;;;;;;;;5015382;28;20177;-60
2023/07/03 13:52:01;;;;;;;5.25;2.45;;;;;;;;;;5014966;28;20184;-60
2023/07/03 13:54:27;;;;;;;5.43;2.15;;;;;;;;;;5015037;28;20207;-57
2023/07/03 13:56:53;;;;;;;5.53;2.20;;;;;;;;;;5014674;28;20185;-60
2023/07/03 13:59:19;;;;;;;8.55;2.28;;;;;;;;;;5016001;28;20437;-62
2023/07/03 14:01:45;;;;;;;7.82;2.47;;;;;;;;;;5014557;28;20216;-60
2023/07/03 14:04:12;;;;;;;6.18;2.72;;;;;;;;;;5015175;28;20181;-62
2023/07/03 14:06:38;;;;;;;5.07;2.10;;;;;;;;;;5014302;28;20486;-62
2023/07/03 14:09:04;;;;;;;7.38;2.20;;;;;;;;;;5014764;28;20184;-62
2023/07/03 14:11:30;;;;;;;6.93;2.25;;;;;;;;;;5015033;28;20198;-62
2023/07/03 14:13:56;;;;;;;7.00;2.10;;;;;;;;;;5015271;28;20252;-62
2023/07/03 14:16:22;;;;;;;7.55;2.90;;;;;;;;;;5014994;28;20591;-62
2023/07/03 14:18:48;;;;;;;4.43;2.47;;;;;;;;;;5014046;28;20208;-61
2023/07/03 14:21:16;;;;;;;4.90;2.63;;;;;;;;;;5014151;28;20235;-61
2023/07/03 14:23:42;;;;;;;4.90;2.13;;;;;;;;;;5014431;28;20203;-61
2023/07/03 14:26:11;;;;;;;4.57;2.25;;;;;;;;;;5014801;28;20196;-61
2023/07/03 14:28:39;;;;;;;7.88;2.50;;;;;;;;;;5014191;28;20260;-61
2023/07/03 14:31:04;;;;;;;9.35;2.13;;;;;;;;;;5015010;28;20188;-60
2023/07/03 14:33:30;;;;;;;6.25;2.30;;;;;;;;;;5014668;28;20184;-60
2023/07/03 14:35:57;;;;;;;6.15;2.28;;;;;;;;;;5014929;28;20556;-59